東京/羽田 の空港の天気 - METARとTAF

東京国際空港 ( RJTT / HND ) - 東京都大田区
飛行場実況気象(Metar)
観測時間07/18 21:30 JST (07/18 12:30 UTC)
風向・風速南 6m/s
視程10km以上
天気現象弱いしゅう雨
少しの雲 雲底高度 270m
全天の4割程度の雲 雲底高度 300m
全天の8割程度の雲 雲底高度 4270m
気温26℃
湿度94%
気圧1013hPa
METARRJTT 181230Z 19011KT 9999 -SHRA FEW009 SCT010 BKN140 26/25 Q1013 NOSIG RMK 1ST009 3CU010 7AC140 A2993
過去の天気等 Google飛行場航空写真 Wunderground天気予報

過去48時間のMETAR

飛行場予報(TAF)
発表時間: 7/18 20:05 JST (7/18 11:05 UTC)
予報対象時間: 18日21時 JST ~ 20日3時 JST
風向・風速南 6m/s
視程8000m
少しの雲 雲底高度 300m
全天の8割程度の雲 雲底高度 610m
19日3時 JST ~ 19日6時 JST に一時的に
視程3000m
天気現象雷雨 もや
少しの雲 雲底高度 150m
全天の8割程度の雲 雲底高度 240m
少しの積乱雲 雲底高度 610m
19日6時 JST ~ 19日9時 JST に一時的に
視程4000m
天気現象弱いしゅう雨 もや
少しの雲 雲底高度 150m
全天の8割程度の雲 雲底高度 240m
19日9時 JST ~ 19日18時 JST に一時的に
風向・風速南南西 11m/s 瞬間風速 16m/s
TAF RJTT 181105Z 1812/1918 19012KT 8000 FEW010 BKN020
TEMPO 1818/1821 3000 TSRA BR FEW005 BKN008 FEW020CB
TEMPO 1821/1900 4000 -SHRA BR FEW005 BKN008
TEMPO 1900/1909 20022G32KT
日本の空港のMETAR・TAFへのリンク

RJTT 東京国際空港
RJAA 新東京国際空港
RJBB 関西国際空港
RJOO 大阪空港
RJGG 中部国際空港
RJCC 新千歳空港
RJFF 福岡空港
ROAH 那覇空港


RJEC 旭川空港
RJCH 函館空港
RJCK 釧路空港
RJCM 女満別空港
RJCB 帯広空港
RJSA 青森空港
RJSS 仙台空港
RJSK 秋田空港
RJSF 福島空港
RJAH 茨城空港
RJSN 新潟空港
RJNT 富山空港
RJNK 小松飛行場
RJNS 静岡空港
RJOH 美保飛行場
RJOC 出雲空港
RJOB 岡山空港
RJOA 広島空港
RJOI 岩国飛行場
RJOT 高松空港
RJOM 松山空港
RJOK 高知空港
RJFR 北九州空港
RJFT 熊本空港
RJFU 長崎空港
RJFS 佐賀空港
RJFO 大分空港
RJFM 宮崎空港
RJFK 鹿児島空港
ROIG 石垣島空港
RJTY 横田飛行場
ROTM 普天間飛行場
RODN 嘉手納飛行場